createdAt,value
2022-08-03T00:01:51.955Z,99.9
2022-08-03T00:03:53.001Z,99.9
2022-08-03T00:06:04.626Z,99.9
2022-08-03T00:09:56.159Z,99.9
2022-08-03T00:11:57.242Z,99.9
2022-08-03T00:14:01.494Z,99.9
2022-08-03T00:16:02.561Z,99.9
2022-08-03T00:18:03.683Z,99.9
2022-08-03T00:24:06.850Z,99.9
2022-08-03T00:26:07.904Z,99.9
2022-08-03T00:28:12.152Z,99.9
2022-08-03T00:30:13.205Z,99.9
2022-08-03T00:32:14.499Z,99.9
2022-08-03T00:34:15.327Z,99.9
2022-08-03T00:38:17.469Z,99.9
2022-08-03T00:44:23.805Z,99.9
2022-08-03T00:46:24.847Z,99.9
2022-08-03T00:49:28.114Z,99.9
2022-08-03T00:51:29.110Z,99.9
2022-08-03T00:53:30.165Z,99.9
2022-08-03T01:01:39.279Z,99.9
2022-08-03T01:03:40.210Z,99.9
2022-08-03T01:05:41.297Z,99.9
2022-08-03T01:12:00.682Z,99.9
2022-08-03T01:14:01.686Z,99.9
2022-08-03T01:15:49.828Z,99.9
2022-08-03T01:17:50.915Z,99.9
2022-08-03T01:19:51.985Z,99.9
2022-08-03T01:21:53.080Z,99.9
2022-08-03T01:23:57.322Z,99.9
2022-08-03T01:25:58.387Z,99.9
2022-08-03T01:27:59.455Z,99.9
2022-08-03T01:30:00.530Z,99.9
2022-08-03T01:32:58.000Z,99.9
2022-08-03T01:34:02.677Z,99.9
2022-08-03T01:36:03.754Z,99.9
2022-08-03T01:38:08.016Z,99.9
2022-08-03T01:40:09.105Z,99.9
2022-08-03T01:42:10.231Z,99.9
2022-08-03T01:45:13.369Z,99.9
2022-08-03T01:49:15.563Z,99.9
2022-08-03T01:51:19.784Z,99.9
2022-08-03T01:53:20.859Z,99.9
2022-08-03T01:55:21.935Z,99.9
2022-08-03T01:57:23.027Z,99.9
2022-08-03T01:59:24.111Z,99.9
2022-08-03T02:03:26.247Z,99.9
2022-08-03T02:05:30.522Z,99.9
2022-08-03T02:07:31.608Z,99.9
2022-08-03T02:09:32.698Z,99.9
2022-08-03T02:11:33.779Z,99.9
2022-08-03T02:13:34.851Z,99.9
2022-08-03T02:15:35.950Z,99.9
2022-08-03T02:19:41.280Z,99.9
2022-08-03T02:23:43.434Z,99.9
2022-08-03T02:25:44.524Z,99.9
2022-08-03T02:31:47.746Z,99.9
2022-08-03T02:33:52.027Z,99.9
2022-08-03T02:35:53.099Z,99.9
2022-08-03T02:37:54.193Z,99.9
2022-08-03T02:38:56.359Z,99.9
2022-08-03T02:40:57.418Z,99.9
2022-08-03T02:42:58.481Z,99.9
2022-08-03T02:44:59.546Z,99.9
2022-08-03T02:47:03.826Z,99.9
2022-08-03T02:53:07.463Z,99.9
2022-08-03T02:59:10.690Z,99.9
2022-08-03T03:01:15.084Z,99.9
2022-08-03T03:03:16.044Z,99.9
2022-08-03T03:05:54.803Z,99.9
2022-08-03T03:07:18.200Z,99.9
2022-08-03T03:09:19.296Z,99.9
2022-08-03T03:11:20.374Z,99.9
2022-08-03T03:13:21.441Z,99.9
2022-08-03T03:15:25.716Z,99.9
2022-08-03T03:17:26.823Z,99.9
2022-08-03T03:19:27.891Z,99.9
2022-08-03T03:21:28.976Z,99.9
2022-08-03T03:23:30.068Z,99.9
2022-08-03T03:25:31.143Z,99.9
2022-08-03T03:27:32.220Z,99.9
2022-08-03T03:29:36.564Z,99.9
2022-08-03T03:31:37.561Z,99.9
2022-08-03T03:33:38.668Z,99.9
2022-08-03T03:36:00.512Z,99.9
2022-08-03T03:38:01.581Z,99.9
2022-08-03T03:40:02.733Z,99.9
2022-08-03T03:42:06.943Z,99.9
2022-08-03T03:44:08.029Z,99.9
2022-08-03T03:46:09.111Z,99.9
2022-08-03T03:48:10.209Z,99.9
2022-08-03T03:50:11.264Z,99.9
2022-08-03T03:52:12.345Z,99.9
2022-08-03T03:54:13.435Z,99.9
2022-08-03T03:56:17.709Z,99.9
2022-08-03T04:00:19.878Z,99.9
2022-08-03T04:04:22.063Z,99.9
2022-08-03T04:06:23.151Z,99.9
2022-08-03T04:08:24.218Z,99.9
2022-08-03T04:10:28.521Z,99.9
2022-08-03T04:12:29.549Z,99.9
2022-08-03T04:14:30.634Z,99.9
2022-08-03T04:16:31.709Z,99.9
2022-08-03T04:18:32.787Z,99.9
2022-08-03T04:20:33.851Z,99.9
2022-08-03T04:22:34.935Z,99.9
2022-08-03T04:24:39.185Z,99.9
2022-08-03T04:26:40.300Z,99.9
2022-08-03T04:28:41.336Z,99.9
2022-08-03T04:29:44.798Z,99.9
2022-08-03T04:31:44.585Z,99.9
2022-08-03T04:33:45.640Z,99.9
2022-08-03T04:35:58.612Z,99.9
2022-08-03T04:37:50.995Z,99.9
2022-08-03T04:39:52.077Z,99.9
2022-08-03T04:42:07.931Z,99.9
2022-08-03T04:43:54.244Z,99.9
2022-08-03T04:45:55.291Z,99.9
2022-08-03T04:47:56.398Z,99.9
2022-08-03T04:49:57.458Z,99.9
2022-08-03T04:52:01.841Z,99.9
2022-08-03T04:54:02.792Z,99.9
2022-08-03T04:56:03.874Z,99.9
2022-08-03T04:58:04.968Z,99.9
2022-08-03T05:00:06.012Z,99.9
2022-08-03T05:04:08.172Z,99.9
2022-08-03T05:06:12.421Z,99.9
2022-08-03T05:08:13.490Z,99.9
2022-08-03T05:10:16.001Z,99.9
2022-08-03T05:12:15.757Z,99.9
2022-08-03T05:14:16.718Z,99.9
2022-08-03T05:16:17.804Z,99.9
2022-08-03T05:18:18.878Z,99.9
2022-08-03T05:20:23.155Z,99.9
2022-08-03T05:22:24.238Z,99.9
2022-08-03T05:24:25.304Z,99.9
2022-08-03T05:25:27.602Z,99.9
2022-08-03T05:29:29.596Z,99.9
2022-08-03T05:31:30.646Z,99.9
2022-08-03T05:33:34.927Z,99.9
2022-08-03T05:36:00.784Z,99.9
2022-08-03T05:37:37.066Z,99.9
2022-08-03T05:41:39.199Z,99.9
2022-08-03T05:43:40.287Z,99.9
2022-08-03T05:45:41.354Z,99.9
2022-08-03T05:47:45.618Z,99.9
2022-08-03T05:49:46.694Z,99.9
2022-08-03T05:51:47.743Z,99.9
2022-08-03T05:53:48.872Z,99.9
2022-08-03T05:55:54.254Z,99.9
2022-08-03T05:57:50.941Z,99.9
2022-08-03T05:59:58.378Z,99.9
2022-08-03T06:01:56.376Z,99.9
2022-08-03T06:03:57.337Z,99.9
2022-08-03T06:06:00.298Z,99.9
2022-08-03T06:07:59.478Z,99.9
2022-08-03T06:10:35.816Z,99.9
2022-08-03T06:12:01.620Z,99.9
2022-08-03T06:14:02.671Z,99.9
2022-08-03T06:16:06.950Z,99.9
2022-08-03T06:18:07.996Z,99.9
2022-08-03T06:20:09.052Z,99.9
2022-08-03T06:21:15.506Z,99.9
2022-08-03T06:23:16.095Z,99.9
2022-08-03T06:25:13.312Z,99.9
2022-08-03T06:27:14.344Z,99.9
2022-08-03T06:29:18.609Z,99.9
2022-08-03T06:31:19.669Z,99.9
2022-08-03T06:33:20.711Z,99.9
2022-08-03T06:35:21.782Z,99.9
2022-08-03T06:37:22.840Z,99.9
2022-08-03T06:39:23.991Z,99.9
2022-08-03T06:41:24.938Z,99.9
2022-08-03T06:43:29.202Z,99.9
2022-08-03T06:45:31.904Z,99.9
2022-08-03T06:55:42.431Z,99.9
2022-08-03T06:57:41.255Z,99.9
2022-08-03T07:01:43.442Z,99.9
2022-08-03T07:03:52.127Z,99.9
2022-08-03T07:05:45.434Z,99.9
2022-08-03T07:07:46.462Z,99.9
2022-08-03T07:09:56.520Z,99.9
2022-08-03T07:11:51.749Z,99.9
2022-08-03T07:13:52.760Z,99.9
2022-08-03T07:18:29.289Z,99.9
2022-08-03T07:22:23.706Z,99.9
2022-08-03T07:24:27.937Z,99.9
2022-08-03T07:26:28.953Z,99.9
2022-08-03T07:28:29.969Z,99.9
2022-08-03T07:36:34.230Z,99.9
2022-08-03T07:46:42.229Z,99.9
2022-08-03T07:48:43.234Z,99.9
2022-08-03T07:50:44.201Z,99.9
2022-08-03T07:52:48.419Z,99.9
2022-08-03T07:54:49.351Z,99.9
2022-08-03T07:56:50.301Z,99.9
2022-08-03T07:58:51.221Z,99.9
2022-08-03T08:00:52.167Z,99.9
2022-08-03T08:02:53.018Z,99.9
2022-08-03T08:04:53.909Z,99.9
2022-08-03T08:06:58.004Z,99.9
2022-08-03T08:08:58.855Z,99.9
2022-08-03T08:10:59.701Z,99.9
2022-08-03T08:12:01.782Z,99.9
2022-08-03T08:14:02.533Z,99.9
2022-08-03T08:16:03.345Z,99.9
2022-08-03T08:18:04.167Z,99.9
2022-08-03T08:34:16.759Z,99.9
2022-08-03T08:44:20.317Z,99.9
2022-08-03T08:46:23.339Z,99.9
2022-08-03T08:48:24.938Z,99.9
2022-08-03T08:50:27.668Z,99.9
2022-08-03T08:58:28.313Z,99.9
2022-08-03T09:00:28.994Z,99.9
2022-08-03T09:04:33.611Z,99.9
2022-08-03T09:06:34.244Z,99.9
2022-08-03T09:07:36.195Z,99.9
2022-08-03T09:10:08.429Z,99.9
2022-08-03T09:11:53.340Z,99.9
2022-08-03T09:13:38.162Z,99.9
2022-08-03T09:15:42.061Z,99.9
2022-08-03T09:19:43.366Z,99.9
2022-08-03T09:21:43.981Z,99.9
2022-08-03T09:23:59.732Z,99.9
2022-08-03T09:25:45.072Z,99.9
2022-08-03T09:27:45.606Z,99.9
2022-08-03T09:31:49.842Z,99.9
2022-08-03T09:33:50.391Z,99.8
2022-08-03T09:35:54.028Z,99.6
2022-08-03T09:49:58.369Z,95.9
2022-08-03T09:52:31.510Z,95.7
2022-08-03T09:54:00.354Z,95.4
2022-08-03T09:56:34.914Z,95
2022-08-03T09:58:03.743Z,94.7
2022-08-03T10:00:08.184Z,94.5
2022-08-03T10:02:04.842Z,94.2
2022-08-03T10:03:06.676Z,93.7
2022-08-03T10:07:07.790Z,93.3
2022-08-03T10:16:22.183Z,92.1
2022-08-03T10:17:13.730Z,91
2022-08-03T10:21:14.766Z,89.9
2022-08-03T10:23:15.335Z,89.3
2022-08-03T10:25:19.046Z,88.6
2022-08-03T10:27:19.898Z,88.4
2022-08-03T10:29:20.136Z,88.3
2022-08-03T10:31:20.721Z,88.6
2022-08-03T10:39:26.306Z,84.9
2022-08-03T10:41:26.882Z,84.1
2022-08-03T10:43:27.425Z,83.6
2022-08-03T10:45:27.986Z,83.5
2022-08-03T10:47:28.573Z,83.9
2022-08-03T10:49:34.434Z,84.1
2022-08-03T10:51:29.688Z,79.4
2022-08-03T10:53:33.419Z,72.6
2022-08-03T10:57:34.565Z,72.9
2022-08-03T11:02:02.288Z,74.7
2022-08-03T11:04:06.113Z,75.3
2022-08-03T11:06:06.556Z,74.4
2022-08-03T11:08:07.105Z,71
2022-08-03T11:10:10.491Z,70.2
2022-08-03T11:12:08.182Z,69.3
2022-08-03T11:14:08.734Z,68.9
2022-08-03T11:16:12.470Z,68.6
2022-08-03T11:18:11.282Z,67.5
2022-08-03T11:20:13.546Z,65.5
2022-08-03T11:22:14.086Z,65.2
2022-08-03T11:24:14.611Z,65.3
2022-08-03T11:26:15.151Z,65.2
2022-08-03T11:28:15.710Z,65.9
2022-08-03T11:30:16.237Z,66
2022-08-03T11:34:20.490Z,63.4
2022-08-03T11:36:32.012Z,63.2
2022-08-03T11:44:23.182Z,62.2
2022-08-03T11:46:28.433Z,61.9
2022-08-03T11:48:27.354Z,61.4
2022-08-03T11:50:27.880Z,61.2
2022-08-03T11:52:28.963Z,60.8
2022-08-03T11:53:30.250Z,61.4
2022-08-03T11:55:30.862Z,61.6
2022-08-03T12:03:36.164Z,60.2
2022-08-03T12:05:36.559Z,59.8
2022-08-03T12:08:03.845Z,59.3
2022-08-03T12:21:43.858Z,57.7
2022-08-03T12:23:44.401Z,57.7
2022-08-03T12:25:44.938Z,57.6
2022-08-03T12:27:45.470Z,57.6
2022-08-03T12:31:49.838Z,56.9
2022-08-03T12:33:50.546Z,56.4
2022-08-03T12:35:53.423Z,56.1
2022-08-03T12:37:51.853Z,56.4
2022-08-03T12:40:02.791Z,56.2
2022-08-03T12:41:54.700Z,54.4
2022-08-03T12:43:58.637Z,53.4
2022-08-03T12:49:02.033Z,53.6
2022-08-03T12:51:02.638Z,53.6
2022-08-03T12:53:03.346Z,53.6
2022-08-03T12:55:04.027Z,53.8
2022-08-03T12:57:07.971Z,53.5
2022-08-03T12:59:08.690Z,52.7
2022-08-03T13:01:10.636Z,51.4
2022-08-03T13:03:38.892Z,50.6
2022-08-03T13:05:10.792Z,50
2022-08-03T13:09:12.206Z,49.8
2022-08-03T13:11:16.161Z,50
2022-08-03T13:13:16.858Z,50.5
2022-08-03T13:19:19.012Z,51
2022-08-03T13:21:19.715Z,50.7
2022-08-03T13:23:22.304Z,48.7
2022-08-03T13:25:24.390Z,47.9
2022-08-03T13:28:04.148Z,47.7
2022-08-03T13:29:25.788Z,47.6
2022-08-03T13:31:26.488Z,47.8
2022-08-03T13:33:27.198Z,47.8
2022-08-03T13:35:27.901Z,47.9
2022-08-03T13:39:32.914Z,48.1
2022-08-03T13:41:33.264Z,48.3
2022-08-03T13:43:33.954Z,48.4
2022-08-03T13:44:35.912Z,48.9
2022-08-03T13:46:36.630Z,49.3
2022-08-03T13:48:37.926Z,49.7
2022-08-03T13:50:42.773Z,50.1
2022-08-03T13:52:42.020Z,51.1
2022-08-03T13:54:46.175Z,51.4
2022-08-03T13:56:43.428Z,51.8
2022-08-03T13:58:44.134Z,52
2022-08-03T14:00:44.813Z,52.2
2022-08-03T14:02:45.561Z,52.7
2022-08-03T14:04:46.235Z,53.1
2022-08-03T14:06:50.159Z,53.8
2022-08-03T14:08:50.877Z,54.1
2022-08-03T14:10:51.586Z,54.6
2022-08-03T14:12:52.288Z,54.7
2022-08-03T14:14:52.991Z,54.8
2022-08-03T14:16:53.687Z,55.1
2022-08-03T14:18:54.389Z,55.4
2022-08-03T14:31:01.834Z,57.9
2022-08-03T14:33:02.577Z,58.2
2022-08-03T14:41:35.421Z,59.9
2022-08-03T14:43:36.114Z,60.4
2022-08-03T14:50:37.960Z,61.4
2022-08-03T14:51:51.426Z,61.4
2022-08-03T14:53:43.003Z,61.5
2022-08-03T14:57:44.447Z,61.4
2022-08-03T15:07:51.990Z,60.5
2022-08-03T15:09:52.712Z,60.6
2022-08-03T15:11:53.461Z,60.9
2022-08-03T15:13:54.173Z,61.1
2022-08-03T15:15:58.152Z,62.5
2022-08-03T15:18:00.268Z,62.8
2022-08-03T15:20:18.983Z,63
2022-08-03T15:22:01.005Z,63.4
2022-08-03T15:24:01.055Z,63.7
2022-08-03T15:26:30.588Z,63.8
2022-08-03T15:28:03.960Z,63.7
2022-08-03T15:30:10.364Z,63.6
2022-08-03T15:32:09.428Z,63.5
2022-08-03T15:34:07.982Z,63.5
2022-08-03T15:41:13.612Z,62.7
2022-08-03T15:43:16.098Z,62.5
2022-08-03T15:57:24.451Z,63.4
2022-08-03T15:59:25.209Z,63.5
2022-08-03T16:05:27.423Z,63.6
2022-08-03T16:09:42.211Z,63.8
2022-08-03T16:11:32.885Z,64
2022-08-03T16:14:12.353Z,64
2022-08-03T16:15:34.387Z,63.6
2022-08-03T16:17:35.119Z,63.3
2022-08-03T16:23:37.381Z,63.2
2022-08-03T16:25:41.502Z,63.6
2022-08-03T16:28:07.072Z,63.9
2022-08-03T16:29:42.895Z,64
2022-08-03T16:30:44.846Z,63.9
2022-08-03T16:32:45.639Z,63.8
2022-08-03T16:36:47.154Z,63.9
2022-08-03T16:38:51.218Z,64.1
2022-08-03T16:40:52.280Z,64.1
2022-08-03T16:42:52.623Z,64.2
2022-08-03T16:44:53.614Z,64.3
2022-08-03T16:46:54.129Z,64.2
2022-08-03T16:48:54.899Z,64
2022-08-03T16:50:55.652Z,64
2022-08-03T16:52:59.636Z,64.2
2022-08-03T16:57:01.176Z,64.3
2022-08-03T16:59:02.254Z,64.4
2022-08-03T17:01:10.809Z,64.5
2022-08-03T17:03:04.218Z,64.5
2022-08-03T17:07:08.804Z,65
2022-08-03T17:09:09.801Z,65.3
2022-08-03T17:11:09.836Z,65.6
2022-08-03T17:13:10.630Z,66.1
2022-08-03T17:15:11.435Z,66.7
2022-08-03T17:17:16.430Z,68.2
2022-08-03T17:19:13.056Z,68.7
2022-08-03T17:21:16.985Z,69.8
2022-08-03T17:23:34.288Z,70.3
2022-08-03T17:25:21.960Z,70.5
2022-08-03T17:26:22.225Z,71
2022-08-03T17:28:48.531Z,71.3
2022-08-03T17:30:22.146Z,71.5
2022-08-03T17:32:23.290Z,71.6
2022-08-03T17:34:26.982Z,71.8
2022-08-03T17:36:47.512Z,71.9
2022-08-03T17:38:28.888Z,72.2
2022-08-03T17:44:37.656Z,72.7
2022-08-03T17:46:31.780Z,73
2022-08-03T17:48:35.805Z,73.7
2022-08-03T17:52:37.410Z,74.4
2022-08-03T17:55:56.146Z,74.8
2022-08-03T17:56:45.952Z,74.7
2022-08-03T17:58:41.476Z,74.9
2022-08-03T18:00:43.305Z,75
2022-08-03T18:02:47.727Z,75.6
2022-08-03T18:04:45.593Z,75.7
2022-08-03T18:06:56.578Z,76.2
2022-08-03T18:08:47.218Z,76.5
2022-08-03T18:10:49.773Z,76.9
2022-08-03T18:12:52.096Z,77.3
2022-08-03T18:14:57.935Z,78.1
2022-08-03T18:16:53.794Z,78.6
2022-08-03T18:18:54.587Z,78.6
2022-08-03T18:20:55.461Z,78.6
2022-08-03T18:23:36.416Z,78.7
2022-08-03T18:25:45.262Z,78.9
2022-08-03T18:27:23.973Z,79.3
2022-08-03T18:29:29.893Z,80.5
2022-08-03T18:31:59.736Z,81.1
2022-08-03T18:34:16.306Z,81.9
2022-08-03T18:35:52.924Z,82.9
2022-08-03T18:39:32.502Z,84.2
2022-08-03T18:41:34.643Z,84.6
2022-08-03T18:43:46.610Z,85.5
2022-08-03T18:45:57.296Z,86.1
2022-08-03T18:47:50.816Z,86.3
2022-08-03T18:49:39.554Z,86.7
2022-08-03T18:51:43.277Z,87.2
2022-08-03T18:54:02.676Z,87.6
2022-08-03T18:55:52.252Z,88.1
2022-08-03T18:57:46.558Z,89.2
2022-08-03T18:59:47.042Z,89.6
2022-08-03T19:01:59.641Z,89.9
2022-08-03T19:03:48.736Z,90.3
2022-08-03T19:06:02.272Z,90.5
2022-08-03T19:07:58.447Z,90.7
2022-08-03T19:09:51.400Z,91
2022-08-03T19:12:25.970Z,91.5
2022-08-03T19:13:56.310Z,91.8
2022-08-03T19:15:57.177Z,92.2
2022-08-03T19:16:59.209Z,92.7
2022-08-03T19:19:00.099Z,93.1
2022-08-03T19:21:00.958Z,94
2022-08-03T19:23:01.852Z,94.5
2022-08-03T19:25:06.103Z,95.5
2022-08-03T19:27:06.841Z,96.1
2022-08-03T19:29:15.111Z,96.7
2022-08-03T19:31:10.294Z,97
2022-08-03T19:33:09.467Z,97.3
2022-08-03T19:35:13.547Z,97.4
2022-08-03T19:37:11.257Z,97.6
2022-08-03T19:39:15.392Z,97.9
2022-08-03T19:41:16.269Z,98.1
2022-08-03T19:43:17.162Z,98.3
2022-08-03T19:45:18.049Z,98.7
2022-08-03T19:47:18.955Z,99
2022-08-03T19:49:19.858Z,99.2
2022-08-03T19:51:56.644Z,99.4
2022-08-03T19:53:24.863Z,99.8
2022-08-03T19:55:25.765Z,99.9
2022-08-03T19:57:26.854Z,99.9
2022-08-03T19:59:27.589Z,99.9
2022-08-03T20:01:28.497Z,99.9
2022-08-03T20:03:43.064Z,99.9
2022-08-03T20:05:30.312Z,99.9
2022-08-03T20:07:34.544Z,99.9
2022-08-03T20:09:35.311Z,99.9
2022-08-03T20:11:43.786Z,99.9
2022-08-03T20:12:39.459Z,99.9
2022-08-03T20:14:39.187Z,99.9
2022-08-03T20:16:40.165Z,99.9
2022-08-03T20:18:41.208Z,99.9
2022-08-03T20:20:45.139Z,99.9
2022-08-03T20:22:46.274Z,99.9
2022-08-03T20:24:52.323Z,99.9
2022-08-03T20:26:47.856Z,99.9
2022-08-03T20:28:50.041Z,99.9
2022-08-03T20:30:49.667Z,99.9
2022-08-03T20:32:50.638Z,99.9
2022-08-03T20:34:54.743Z,99.9
2022-08-03T20:36:55.670Z,99.9
2022-08-03T20:38:58.175Z,99.9
2022-08-03T20:40:59.204Z,99.9
2022-08-03T20:42:58.448Z,99.9
2022-08-03T20:45:05.266Z,99.9
2022-08-03T20:49:04.471Z,99.9
2022-08-03T20:55:12.787Z,99.9
2022-08-03T20:57:09.510Z,99.9
2022-08-03T20:59:09.210Z,99.9
2022-08-03T21:01:10.054Z,99.9
2022-08-03T21:03:14.246Z,99.9
2022-08-03T21:05:15.172Z,99.9
2022-08-03T21:10:19.150Z,99.9
2022-08-03T21:12:20.349Z,99.9
2022-08-03T21:14:21.095Z,99.9
2022-08-03T21:16:25.261Z,99.9
2022-08-03T21:18:26.198Z,99.9
2022-08-03T21:20:27.153Z,99.9
2022-08-03T21:22:28.165Z,99.9
2022-08-03T21:24:29.094Z,99.9
2022-08-03T21:30:35.185Z,99.9
2022-08-03T21:34:37.122Z,99.9
2022-08-03T21:44:45.173Z,99.9
2022-08-03T21:48:47.101Z,99.9
2022-08-03T21:56:51.035Z,99.9
2022-08-03T21:58:55.189Z,99.9
2022-08-03T22:00:56.182Z,99.9
2022-08-03T22:02:58.131Z,99.9
2022-08-03T22:05:28.138Z,99.9
2022-08-03T22:07:24.115Z,99.9
2022-08-03T22:09:25.056Z,99.9
2022-08-03T22:11:29.234Z,99.9
2022-08-03T22:13:43.120Z,99.9
2022-08-03T22:15:31.234Z,99.9
2022-08-03T22:17:55.146Z,99.9
2022-08-03T22:19:33.208Z,99.9
2022-08-03T22:21:36.057Z,99.9
2022-08-03T22:23:35.176Z,99.9
2022-08-03T22:25:39.366Z,99.9
2022-08-03T22:27:40.369Z,99.9
2022-08-03T22:29:41.373Z,99.9
2022-08-03T22:31:59.106Z,99.9
2022-08-03T22:33:43.355Z,99.9
2022-08-03T22:35:47.941Z,99.9
2022-08-03T22:37:45.336Z,99.9
2022-08-03T22:41:50.571Z,99.9
2022-08-03T22:43:51.529Z,99.9
2022-08-03T22:46:10.599Z,99.9
2022-08-03T22:47:53.515Z,99.9
2022-08-03T22:51:55.536Z,99.9
2022-08-03T22:53:59.730Z,99.9
2022-08-03T22:56:00.729Z,99.9
2022-08-03T22:58:01.718Z,99.9
2022-08-03T23:03:05.904Z,99.9
2022-08-03T23:09:12.093Z,99.9
2022-08-03T23:11:13.077Z,99.9
2022-08-03T23:19:25.513Z,99.9
2022-08-03T23:22:00.154Z,99.9
2022-08-03T23:23:22.326Z,99.9
2022-08-03T23:25:23.356Z,99.9
2022-08-03T23:27:24.355Z,99.9
2022-08-03T23:29:25.382Z,99.9
2022-08-03T23:31:26.402Z,99.9
2022-08-03T23:33:27.416Z,99.9
2022-08-03T23:36:28.659Z,99.9
2022-08-03T23:37:32.650Z,99.9
2022-08-03T23:39:34.999Z,99.9
2022-08-03T23:41:34.671Z,99.9
2022-08-03T23:47:46.445Z,99.9
2022-08-03T23:49:41.951Z,99.9
2022-08-03T23:53:43.996Z,99.9
2022-08-03T23:56:47.326Z,99.9
2022-08-03T23:58:48.156Z,99.9
